Time;durP1;ratioP1;P1;durP2;ratioP2;P2;SDS_P1;SDS_P2;PMS_P1;PMS_P2;Temp;Humidity;BMP_temperature;BMP_pressure;BME280_temperature;BME280_humidity;BME280_pressure;Samples;Min_cycle;Max_cycle;Signal;HPM_P1;HPM_P2
2021/04/01 00:01:36;;;;;;;83.00;57.40;;;11.40;87.10;;;;;;5033395;28;20037;-79
2021/04/01 00:04:02;;;;;;;80.85;55.28;;;11.40;86.50;;;;;;5035186;28;20055;-79
2021/04/01 00:06:28;;;;;;;89.53;59.30;;;11.40;86.60;;;;;;5037844;28;20038;-79
2021/04/01 00:08:54;;;;;;;81.68;55.92;;;11.40;86.60;;;;;;5031255;28;20050;-79
2021/04/01 00:11:19;;;;;;;83.00;57.05;;;11.30;86.30;;;;;;5046708;28;20061;-79
2021/04/01 00:13:45;;;;;;;85.10;58.72;;;11.30;86.30;;;;;;5030634;28;20041;-79
2021/04/01 00:16:11;;;;;;;86.40;57.05;;;11.20;86.70;;;;;;5032246;28;20041;-79
2021/04/01 00:18:37;;;;;;;87.50;60.67;;;11.20;86.70;;;;;;5032238;28;20399;-79
2021/04/01 00:21:04;;;;;;;88.93;57.63;;;11.10;86.70;;;;;;5033688;28;20048;-79
2021/04/01 00:23:29;;;;;;;88.07;56.90;;;11.10;87.10;;;;;;5044197;28;20041;-79
2021/04/01 00:25:56;;;;;;;90.30;60.42;;;11.00;87.30;;;;;;5047952;28;20072;-79
2021/04/01 00:28:22;;;;;;;82.85;55.67;;;11.00;87.90;;;;;;5025344;28;20029;-79
2021/04/01 00:30:48;;;;;;;89.00;59.38;;;11.00;88.00;;;;;;5028501;28;20042;-79
2021/04/01 00:33:14;;;;;;;90.55;58.83;;;11.10;88.00;;;;;;5022187;28;20052;-78
2021/04/01 00:35:40;;;;;;;90.50;59.05;;;11.10;88.30;;;;;;5033473;28;20049;-78
2021/04/01 00:38:06;;;;;;;90.03;59.35;;;11.10;88.20;;;;;;5024957;28;20066;-78
2021/04/01 00:40:32;;;;;;;85.43;57.80;;;11.10;88.30;;;;;;5031638;28;20065;-78
2021/04/01 00:42:58;;;;;;;86.60;59.83;;;11.10;88.50;;;;;;5032864;28;20051;-78
2021/04/01 00:45:24;;;;;;;89.72;59.45;;;11.10;88.60;;;;;;5030119;28;20132;-78
2021/04/01 00:47:52;;;;;;;87.75;56.03;;;11.10;88.50;;;;;;5033594;28;20051;-78
2021/04/01 00:50:22;;;;;;;86.85;56.80;;;11.20;88.80;;;;;;5026043;28;20124;-78
2021/04/01 00:52:47;;;;;;;90.32;59.50;;;11.20;88.60;;;;;;5027098;28;20050;-79
2021/04/01 00:55:14;;;;;;;89.55;56.63;;;11.30;88.00;;;;;;5033773;28;20041;-79
2021/04/01 00:57:43;;;;;;;83.38;58.33;;;11.20;88.20;;;;;;5033893;28;20041;-79
2021/04/01 01:00:12;;;;;;;84.88;55.83;;;11.30;88.40;;;;;;5022724;28;20397;-79
2021/04/01 01:02:37;;;;;;;87.95;57.40;;;11.20;88.20;;;;;;5027029;28;20358;-79
2021/04/01 01:05:04;;;;;;;88.85;57.72;;;11.30;88.40;;;;;;5020231;28;20047;-79
2021/04/01 01:07:30;;;;;;;83.95;56.97;;;11.30;88.60;;;;;;5028987;28;20080;-79
2021/04/01 01:09:56;;;;;;;85.50;57.05;;;11.30;88.50;;;;;;5019296;28;20496;-79
2021/04/01 01:12:22;;;;;;;86.43;57.55;;;11.20;88.40;;;;;;5017191;28;20449;-79
2021/04/01 01:14:48;;;;;;;90.50;58.25;;;11.30;88.30;;;;;;5020428;28;20045;-78
2021/04/01 01:17:15;;;;;;;89.43;60.30;;;11.20;88.30;;;;;;5030219;28;20034;-78
2021/04/01 01:19:45;;;;;;;83.35;56.83;;;11.30;88.40;;;;;;5035611;28;20063;-78
2021/04/01 01:22:12;;;;;;;87.55;56.38;;;11.30;88.50;;;;;;5033781;28;20044;-78
2021/04/01 01:24:38;;;;;;;91.93;58.53;;;11.20;88.30;;;;;;5024329;28;20056;-78
2021/04/01 01:27:05;;;;;;;81.10;53.55;;;11.30;87.80;;;;;;5028992;28;20037;-78
2021/04/01 01:29:32;;;;;;;86.75;57.42;;;11.30;87.70;;;;;;5027433;28;20034;-78
2021/04/01 01:31:58;;;;;;;81.53;56.15;;;11.30;87.90;;;;;;5022517;28;20057;-78
2021/04/01 01:34:25;;;;;;;88.30;59.03;;;11.40;87.50;;;;;;5027818;28;20046;-78
2021/04/01 01:36:51;;;;;;;85.43;57.78;;;11.40;87.10;;;;;;5028026;28;20048;-78
2021/04/01 01:39:17;;;;;;;87.85;57.30;;;11.40;86.60;;;;;;5022285;28;20068;-78
2021/04/01 01:41:43;;;;;;;89.32;57.17;;;11.40;86.00;;;;;;5019348;28;20417;-78
2021/04/01 01:44:09;;;;;;;85.32;55.88;;;11.40;85.40;;;;;;5027055;28;20129;-78
2021/04/01 01:46:35;;;;;;;89.68;59.85;;;11.50;84.50;;;;;;5026857;28;20124;-78
2021/04/01 01:49:01;;;;;;;92.28;60.33;;;11.50;83.60;;;;;;5025477;28;20533;-79
2021/04/01 01:51:29;;;;;;;92.97;61.45;;;11.60;83.00;;;;;;5027072;28;20364;-79
2021/04/01 01:53:55;;;;;;;100.57;63.50;;;11.70;82.70;;;;;;5028513;28;20098;-78
2021/04/01 01:56:22;;;;;;;93.95;59.80;;;11.70;82.20;;;;;;5032765;28;20041;-79
2021/04/01 01:58:49;;;;;;;91.88;58.40;;;11.70;82.00;;;;;;5029840;28;20037;-79
2021/04/01 02:01:17;;;;;;;95.60;61.90;;;11.80;81.90;;;;;;5019900;28;20053;-78
2021/04/01 02:03:42;;;;;;;99.78;63.47;;;11.80;81.50;;;;;;5030603;28;20077;-78
2021/04/01 02:06:12;;;;;;;100.30;63.70;;;11.80;81.20;;;;;;5022871;28;20076;-78
2021/04/01 02:08:38;;;;;;;102.18;64.18;;;11.80;80.70;;;;;;5022643;28;20390;-78
2021/04/01 02:11:04;;;;;;;101.82;65.43;;;11.90;80.70;;;;;;5030805;28;20033;-78
2021/04/01 02:13:30;;;;;;;101.03;65.68;;;11.90;80.30;;;;;;5025810;28;20465;-78
2021/04/01 02:15:57;;;;;;;95.13;61.25;;;11.90;80.30;;;;;;5030114;28;20103;-78
2021/04/01 02:18:28;;;;;;;96.72;62.17;;;11.90;80.40;;;;;;5035023;28;20530;-78
2021/04/01 02:20:56;;;;;;;100.93;63.83;;;11.90;80.40;;;;;;5024116;28;20030;-78
2021/04/01 02:23:27;;;;;;;100.25;64.10;;;11.90;80.10;;;;;;5026336;28;20107;-78
2021/04/01 02:25:55;;;;;;;97.60;62.25;;;12.00;80.10;;;;;;5029397;28;20098;-78
2021/04/01 02:28:24;;;;;;;97.07;62.50;;;11.90;80.30;;;;;;5024796;28;20061;-78
2021/04/01 02:30:52;;;;;;;103.13;65.97;;;11.90;80.70;;;;;;5026611;28;20104;-78
2021/04/01 02:33:23;;;;;;;94.93;61.00;;;11.90;80.80;;;;;;5020917;28;20046;-78
2021/04/01 02:35:50;;;;;;;100.72;63.85;;;11.90;81.10;;;;;;5029441;28;20053;-78
2021/04/01 02:38:16;;;;;;;100.82;64.03;;;11.90;81.70;;;;;;5025406;28;20207;-78
2021/04/01 02:40:42;;;;;;;99.88;64.55;;;11.80;82.30;;;;;;5030378;28;20034;-78
2021/04/01 02:43:10;;;;;;;102.32;65.47;;;11.80;83.10;;;;;;5025856;28;20724;-78
2021/04/01 02:45:36;;;;;;;101.15;65.07;;;11.70;83.00;;;;;;5026885;28;20068;-78
2021/04/01 02:48:02;;;;;;;107.18;66.03;;;11.60;83.00;;;;;;5018540;28;20477;-78
2021/04/01 02:50:28;;;;;;;105.28;67.63;;;11.60;83.20;;;;;;5025228;28;20041;-78
2021/04/01 02:52:54;;;;;;;94.25;60.42;;;11.60;83.60;;;;;;5024553;28;20045;-79
2021/04/01 02:55:20;;;;;;;106.00;67.53;;;11.50;83.90;;;;;;5020380;28;20033;-77
2021/04/01 02:57:46;;;;;;;105.38;67.38;;;11.40;84.00;;;;;;5020566;28;20118;-77
2021/04/01 03:00:19;;;;;;;101.53;65.18;;;11.40;83.90;;;;;;5019823;28;20042;-77
2021/04/01 03:02:58;;;;;;;99.43;63.88;;;11.40;84.30;;;;;;5022520;28;20068;-78
2021/04/01 03:05:24;;;;;;;97.22;59.50;;;11.30;84.70;;;;;;5017139;28;20096;-78
2021/04/01 03:07:50;;;;;;;103.20;64.82;;;11.30;85.20;;;;;;5020338;28;20061;-78
2021/04/01 03:10:15;;;;;;;108.90;67.22;;;11.20;85.30;;;;;;5025286;28;20477;-78
2021/04/01 03:12:41;;;;;;;110.85;68.07;;;11.20;85.70;;;;;;5023146;28;20050;-78
2021/04/01 03:15:10;;;;;;;97.38;61.63;;;11.20;86.10;;;;;;5020183;28;20055;-78
2021/04/01 03:17:37;;;;;;;100.82;62.65;;;11.20;86.30;;;;;;5029111;28;20370;-78
2021/04/01 03:20:04;;;;;;;98.63;62.38;;;11.00;86.50;;;;;;5013703;28;20081;-78
2021/04/01 03:22:30;;;;;;;97.57;63.97;;;11.10;86.80;;;;;;5021588;28;20088;-78
2021/04/01 03:24:56;;;;;;;97.63;62.75;;;11.10;86.80;;;;;;5019235;28;20026;-78
2021/04/01 03:27:22;;;;;;;99.55;59.35;;;11.00;86.90;;;;;;5028375;28;20026;-78
2021/04/01 03:30:21;;;;;;;97.28;59.67;;;10.90;87.10;;;;;;5002124;28;20512;-78
2021/04/01 03:32:43;;;;;;;97.28;59.88;;;10.90;87.30;;;;;;5020385;28;20054;-78
2021/04/01 03:35:10;;;;;;;101.22;61.45;;;10.80;87.80;;;;;;5021458;28;20120;-78
2021/04/01 03:37:37;;;;;;;102.13;63.03;;;10.80;88.00;;;;;;5026676;28;20124;-78
2021/04/01 03:40:05;;;;;;;100.00;60.80;;;10.70;88.20;;;;;;5020553;28;20048;-78
2021/04/01 03:42:31;;;;;;;101.00;62.22;;;10.60;87.80;;;;;;5026073;28;20041;-78
2021/04/01 03:44:57;;;;;;;103.65;61.88;;;10.50;87.90;;;;;;5046689;28;20037;-78
2021/04/01 03:47:24;;;;;;;102.28;61.38;;;10.50;88.60;;;;;;5020711;28;20416;-78
2021/04/01 03:49:50;;;;;;;102.15;65.25;;;10.40;88.60;;;;;;5018615;28;20045;-78
2021/04/01 03:52:16;;;;;;;108.93;66.57;;;10.40;88.90;;;;;;5020868;28;20044;-78
2021/04/01 03:54:45;;;;;;;112.13;68.25;;;10.30;88.90;;;;;;5020351;28;20083;-78
2021/04/01 03:57:10;;;;;;;108.82;67.55;;;10.20;89.00;;;;;;5022411;28;20462;-78
2021/04/01 04:02:40;;;;;;;119.57;73.55;;;10.20;88.60;;;;;;5106991;28;20040;-77
2021/04/01 04:11:04;;;;;;;121.97;73.07;;;10.00;88.60;;;;;;5110221;28;20377;-78
2021/04/01 04:16:08;;;;;;;125.15;74.68;;;9.90;88.70;;;;;;5109596;28;20031;-78
2021/04/01 04:18:33;;;;;;;132.93;78.03;;;9.80;88.80;;;;;;5103349;28;20060;-78
2021/04/01 04:20:59;;;;;;;135.60;78.13;;;9.70;89.30;;;;;;5117722;27;20487;-78
2021/04/01 04:23:25;;;;;;;148.75;82.90;;;9.70;89.60;;;;;;5105621;28;20115;-78
2021/04/01 04:25:54;;;;;;;142.88;82.25;;;9.80;89.40;;;;;;5112678;28;20035;-78
2021/04/01 04:30:48;;;;;;;145.65;81.07;;;9.80;89.40;;;;;;5119722;28;20437;-78
2021/04/01 04:33:14;;;;;;;143.68;85.32;;;9.90;89.60;;;;;;5108074;28;20036;-78
2021/04/01 04:35:40;;;;;;;140.35;80.65;;;9.90;89.40;;;;;;5119547;28;20478;-78
2021/04/01 04:38:06;;;;;;;145.85;83.55;;;9.90;89.20;;;;;;5108028;27;20371;-78
2021/04/01 04:40:32;;;;;;;139.70;81.00;;;9.80;89.00;;;;;;5091315;28;20062;-78
2021/04/01 04:42:58;;;;;;;147.00;83.72;;;9.80;89.00;;;;;;5108473;28;20463;-78
2021/04/01 04:45:24;;;;;;;141.40;82.57;;;9.70;89.10;;;;;;5112645;28;20122;-78
2021/04/01 04:47:50;;;;;;;143.30;83.72;;;9.70;89.20;;;;;;5102987;28;20051;-77
2021/04/01 04:50:16;;;;;;;141.45;82.05;;;9.60;89.40;;;;;;5115186;28;20035;-77
2021/04/01 04:52:42;;;;;;;145.57;87.60;;;9.50;89.80;;;;;;5113727;28;20434;-77
2021/04/01 04:55:09;;;;;;;145.38;83.72;;;9.60;89.70;;;;;;5111910;28;20050;-77
2021/04/01 05:05:34;;;;;;;138.13;82.83;;;9.40;90.10;;;;;;5109096;27;20062;-78
2021/04/01 05:08:00;;;;;;;137.35;83.97;;;9.40;90.20;;;;;;5110826;27;20464;-79
2021/04/01 05:10:26;;;;;;;133.38;84.40;;;9.30;90.30;;;;;;5095818;28;20168;-79
2021/04/01 05:13:10;;;;;;;138.60;83.78;;;9.20;90.20;;;;;;5095443;28;20470;-78
2021/04/01 05:15:46;;;;;;;134.95;82.40;;;9.20;90.30;;;;;;5095203;28;20047;-78
2021/04/01 05:18:17;;;;;;;133.82;81.88;;;9.20;90.20;;;;;;5102014;28;20039;-78
2021/04/01 05:20:45;;;;;;;123.28;78.63;;;9.20;90.40;;;;;;5093739;28;20047;-79
2021/04/01 05:23:19;;;;;;;132.52;81.95;;;9.10;90.20;;;;;;5096595;28;20489;-79
2021/04/01 05:25:47;;;;;;;130.23;80.25;;;9.10;90.20;;;;;;5095913;28;20243;-79
2021/04/01 05:28:25;;;;;;;122.57;76.90;;;9.20;90.30;;;;;;5098312;28;20036;-79
2021/04/01 05:30:51;;;;;;;125.38;78.28;;;9.10;90.30;;;;;;5091701;28;20031;-78
2021/04/01 05:33:19;;;;;;;129.40;79.95;;;9.00;90.30;;;;;;5105714;28;20060;-78
2021/04/01 05:35:45;;;;;;;128.73;79.90;;;9.00;90.40;;;;;;5091010;28;20122;-77
2021/04/01 05:38:11;;;;;;;127.75;79.97;;;8.90;90.30;;;;;;5100066;27;20196;-78
2021/04/01 05:40:37;;;;;;;121.78;78.57;;;8.90;90.50;;;;;;5088604;28;20032;-78
2021/04/01 05:43:08;;;;;;;132.70;79.70;;;8.80;90.50;;;;;;5095845;28;20088;-76
2021/04/01 05:45:41;;;;;;;130.35;83.40;;;8.90;90.60;;;;;;5099697;28;20127;-78
2021/04/01 05:48:17;;;;;;;130.82;83.22;;;8.80;90.70;;;;;;5095076;27;20138;-77
2021/04/01 06:04:05;;;;;;;133.52;82.57;;;8.60;91.40;;;;;;5092134;28;20396;-77
2021/04/01 06:09:02;;;;;;;131.40;83.75;;;8.60;91.60;;;;;;5097856;28;20119;-77
2021/04/01 06:11:28;;;;;;;127.32;86.15;;;8.50;91.80;;;;;;5088347;28;20371;-77
2021/04/01 06:14:13;;;;;;;132.05;83.70;;;8.60;91.90;;;;;;5099244;28;20174;-78
2021/04/01 06:16:41;;;;;;;112.28;75.40;;;8.50;91.80;;;;;;5091756;28;20032;-78
2021/04/01 06:19:09;;;;;;;104.15;66.07;;;8.40;92.10;;;;;;5092831;28;20382;-77
2021/04/01 06:21:44;;;;;;;103.60;64.50;;;8.40;92.10;;;;;;5091920;28;20052;-77
2021/04/01 06:24:27;;;;;;;85.88;53.78;;;8.40;92.20;;;;;;5094964;28;20039;-77
2021/04/01 06:27:11;;;;;;;78.38;47.97;;;8.40;92.20;;;;;;5093004;28;20043;-77
2021/04/01 06:29:39;;;;;;;67.20;37.58;;;8.40;91.80;;;;;;5093008;28;20470;-77
2021/04/01 06:32:26;;;;;;;57.20;32.55;;;8.30;91.50;;;;;;5092439;28;20084;-78
2021/04/01 06:34:53;;;;;;;56.33;33.33;;;8.50;91.60;;;;;;5103562;28;20039;-78
2021/04/01 06:37:42;;;;;;;53.95;31.42;;;8.50;91.10;;;;;;5092622;28;20360;-77
2021/04/01 06:40:09;;;;;;;43.30;23.55;;;8.60;91.00;;;;;;5098610;28;20044;-77
2021/04/01 06:42:53;;;;;;;34.50;19.67;;;8.70;90.70;;;;;;5091494;28;20044;-77
2021/04/01 06:45:24;;;;;;;31.55;16.20;;;8.70;90.30;;;;;;5094151;28;20035;-77
2021/04/01 06:47:56;;;;;;;31.65;13.05;;;8.80;90.00;;;;;;5090155;28;20103;-77
2021/04/01 06:50:33;;;;;;;23.73;10.95;;;8.90;89.10;;;;;;5105935;28;20036;-78
2021/04/01 06:56:43;;;;;;;15.68;5.57;;;9.00;86.60;;;;;;5083402;28;20052;-79
2021/04/01 06:59:11;;;;;;;22.00;5.10;;;9.20;84.20;;;;;;5083834;28;20059;-78
2021/04/01 07:01:47;;;;;;;11.57;3.63;;;9.40;82.00;;;;;;5095713;28;20051;-78
2021/04/01 07:04:14;;;;;;;21.33;4.65;;;9.40;81.30;;;;;;5092034;28;20061;-78
2021/04/01 07:06:46;;;;;;;14.52;3.50;;;9.50;81.20;;;;;;5097080;28;20123;-78
2021/04/01 07:12:10;;;;;;;15.02;3.80;;;9.80;80.00;;;;;;5098104;28;20088;-79
2021/04/01 07:14:40;;;;;;;10.25;2.47;;;10.00;78.30;;;;;;5087500;28;20058;-79
2021/04/01 07:17:12;;;;;;;14.93;2.47;;;10.10;77.20;;;;;;5094454;28;20044;-79
2021/04/01 07:22:42;;;;;;;14.45;2.75;;;10.20;76.30;;;;;;5097491;28;20673;-78
2021/04/01 07:31:46;;;;;;;;;;;10.60;75.10;;;;;;5092452;28;20027;-79
2021/04/01 07:47:40;;;;;;;14.25;3.47;;;11.10;73.00;;;;;;5092646;28;20040;-77
2021/04/01 07:50:16;;;;;;;12.60;3.03;;;11.40;73.60;;;;;;5087933;28;20104;-77
2021/04/01 07:52:49;;;;;;;14.15;3.15;;;11.50;72.80;;;;;;5098229;28;20043;-77
2021/04/01 07:55:41;;;;;;;15.75;3.30;;;11.60;72.80;;;;;;5091049;28;20119;-77
2021/04/01 08:06:15;;;;;;;13.65;2.75;;;11.50;73.80;;;;;;5088496;28;20044;-76
2021/04/01 08:08:45;;;;;;;16.02;2.95;;;11.50;73.50;;;;;;5096251;28;20135;-76
2021/04/01 08:11:22;;;;;;;16.77;2.75;;;11.60;73.30;;;;;;5095190;28;20112;-76
2021/04/01 08:13:56;;;;;;;11.63;2.15;;;11.60;73.00;;;;;;5092869;28;20068;-76
2021/04/01 08:16:27;;;;;;;14.13;3.38;;;11.70;73.10;;;;;;5088203;28;20156;-76
2021/04/01 08:18:57;;;;;;;16.42;2.72;;;11.70;73.20;;;;;;5096906;28;20075;-76
2021/04/01 08:21:25;;;;;;;14.63;2.75;;;11.70;73.60;;;;;;5092340;28;20040;-77
2021/04/01 08:24:03;;;;;;;17.73;3.72;;;11.80;73.90;;;;;;5094365;28;20066;-77
2021/04/01 08:26:41;;;;;;;22.17;3.20;;;12.00;73.80;;;;;;5093758;28;20110;-77
2021/04/01 08:34:38;;;;;;;15.52;3.17;;;12.20;73.20;;;;;;5092439;28;20356;-78
2021/04/01 08:37:06;;;;;;;16.73;4.22;;;12.10;74.50;;;;;;5095108;28;20157;-77
2021/04/01 08:39:35;;;;;;;23.45;3.88;;;12.10;74.50;;;;;;5096709;28;20138;-77
2021/04/01 08:42:07;;;;;;;13.68;3.20;;;12.10;75.30;;;;;;5094303;28;20528;-77
2021/04/01 08:44:48;;;;;;;13.85;3.60;;;12.00;75.60;;;;;;5095250;28;20056;-78
2021/04/01 08:47:41;;;;;;;17.58;3.60;;;12.10;75.20;;;;;;5096118;28;20445;-78
2021/04/01 08:50:27;;;;;;;17.83;3.28;;;12.00;75.30;;;;;;5098546;28;20427;-78
2021/04/01 08:53:23;;;;;;;16.85;3.40;;;12.00;75.90;;;;;;5099498;28;20046;-78
2021/04/01 08:56:11;;;;;;;15.90;3.03;;;12.00;75.30;;;;;;5097105;28;20043;-78
2021/04/01 08:58:41;;;;;;;15.50;3.47;;;11.90;75.10;;;;;;5097960;28;20047;-77
2021/04/01 09:01:18;;;;;;;13.38;3.38;;;11.70;76.50;;;;;;5105007;28;20579;-78
2021/04/01 09:03:49;;;;;;;14.02;3.38;;;11.60;77.90;;;;;;5097998;28;20052;-77
2021/04/01 09:06:24;;;;;;;13.35;2.95;;;11.70;77.20;;;;;;5100460;28;20085;-77
2021/04/01 09:09:03;;;;;;;11.88;2.58;;;11.60;76.70;;;;;;5094332;28;20128;-77
2021/04/01 09:11:37;;;;;;;9.45;2.72;;;11.40;77.40;;;;;;5104311;28;20135;-78
2021/04/01 09:14:14;;;;;;;13.50;2.97;;;11.30;78.50;;;;;;5098373;28;20065;-78
2021/04/01 09:16:47;;;;;;;12.90;2.50;;;11.30;79.00;;;;;;5097653;28;20044;-77
2021/04/01 09:19:15;;;;;;;9.43;2.40;;;11.40;79.10;;;;;;5091172;28;20503;-77
2021/04/01 09:21:43;;;;;;;11.02;2.40;;;11.50;78.10;;;;;;5094915;28;20058;-77
2021/04/01 09:24:12;;;;;;;11.18;2.70;;;11.50;78.00;;;;;;5096991;28;20126;-77
2021/04/01 09:26:47;;;;;;;14.38;4.38;;;11.50;77.80;;;;;;5102887;28;20032;-77
2021/04/01 09:29:13;;;;;;;14.00;2.80;;;11.30;77.70;;;;;;5091252;28;20048;-77
2021/04/01 09:31:44;;;;;;;11.20;2.30;;;11.20;78.60;;;;;;5102751;28;20040;-77
2021/04/01 09:34:11;;;;;;;9.50;2.38;;;11.30;78.90;;;;;;5094012;28;20476;-78
2021/04/01 09:36:42;;;;;;;7.40;1.65;;;11.30;78.70;;;;;;5099570;28;20083;-78
2021/04/01 09:39:25;;;;;;;12.65;1.70;;;11.30;78.00;;;;;;5093689;28;20063;-78
2021/04/01 09:41:56;;;;;;;10.20;1.67;;;11.30;76.90;;;;;;5099005;28;20082;-77
2021/04/01 09:44:22;;;;;;;8.65;1.67;;;11.30;76.20;;;;;;5093111;28;20426;-77
2021/04/01 09:47:27;;;;;;;7.07;1.75;;;11.30;75.70;;;;;;5097176;28;20047;-78
2021/04/01 09:49:59;;;;;;;9.63;1.90;;;11.40;75.20;;;;;;5079559;28;20066;-77
2021/04/01 09:52:27;;;;;;;7.07;1.65;;;11.50;74.90;;;;;;5097826;28;20253;-77
2021/04/01 09:54:56;;;;;;;10.90;1.98;;;11.60;75.00;;;;;;5099102;28;20040;-78
2021/04/01 09:57:46;;;;;;;12.73;2.20;;;11.90;74.70;;;;;;5106362;28;20476;-78
2021/04/01 10:03:13;;;;;;;11.45;2.08;;;12.00;74.10;;;;;;5100037;28;20042;-78
2021/04/01 10:05:42;;;;;;;8.80;1.42;;;12.10;73.70;;;;;;5097214;28;20110;-78
2021/04/01 10:08:21;;;;;;;9.55;2.15;;;12.10;72.70;;;;;;5094492;28;20131;-78
2021/04/01 10:10:50;;;;;;;9.93;1.98;;;12.00;72.30;;;;;;5093851;28;20054;-78
2021/04/01 10:13:19;;;;;;;8.10;1.38;;;11.80;72.20;;;;;;5096560;28;20044;-78
2021/04/01 10:15:45;;;;;;;8.65;1.55;;;11.70;72.70;;;;;;5087897;28;20082;-78
2021/04/01 10:18:34;;;;;;;11.98;1.75;;;11.70;72.90;;;;;;5097526;28;20027;-79
2021/04/01 10:21:09;;;;;;;9.27;2.13;;;11.80;73.10;;;;;;5093477;28;20419;-79
2021/04/01 10:23:52;;;;;;;10.00;1.90;;;11.90;73.00;;;;;;5098072;28;20036;-79
2021/04/01 10:26:22;;;;;;;8.63;1.38;;;12.10;72.50;;;;;;5094232;28;20491;-77
2021/04/01 10:29:15;;;;;;;6.90;1.58;;;12.30;72.00;;;;;;5096036;28;20036;-80
2021/04/01 10:31:51;;;;;;;8.45;2.25;;;12.40;70.40;;;;;;5103335;28;20139;-79
2021/04/01 10:34:39;;;;;;;6.72;1.40;;;12.20;69.70;;;;;;5104128;27;20551;-78
2021/04/01 10:37:10;;;;;;;10.90;1.73;;;12.10;69.30;;;;;;5092255;28;20371;-79
2021/04/01 10:39:39;;;;;;;11.85;1.63;;;12.00;69.50;;;;;;5099386;28;20036;-79
2021/04/01 10:42:11;;;;;;;8.25;1.60;;;12.00;69.90;;;;;;5095347;28;20032;-79
2021/04/01 10:44:38;;;;;;;12.00;1.88;;;12.10;69.30;;;;;;5094901;28;20407;-79
2021/04/01 10:47:06;;;;;;;9.77;1.60;;;12.10;69.40;;;;;;5089115;28;20039;-79
2021/04/01 10:49:38;;;;;;;16.88;2.05;;;12.30;69.90;;;;;;5102729;28;20113;-79
2021/04/01 10:52:08;;;;;;;9.30;1.48;;;12.40;68.50;;;;;;5093078;28;20055;-79
2021/04/01 10:54:40;;;;;;;13.15;1.88;;;12.40;68.20;;;;;;5094838;28;20040;-79
2021/04/01 10:57:27;;;;;;;9.32;1.73;;;12.40;68.40;;;;;;5090724;28;20124;-79
2021/04/01 11:00:05;;;;;;;11.90;1.80;;;12.40;68.20;;;;;;5100027;28;20044;-79
2021/04/01 11:03:09;;;;;;;8.75;1.60;;;12.30;69.20;;;;;;5091633;28;20044;-78
2021/04/01 11:05:37;;;;;;;8.60;1.30;;;12.20;68.50;;;;;;5093583;28;20185;-78
2021/04/01 11:08:09;;;;;;;9.27;1.98;;;12.10;67.40;;;;;;5089953;28;20059;-80
2021/04/01 11:10:37;;;;;;;7.43;1.30;;;12.10;67.60;;;;;;5098077;28;20078;-79
2021/04/01 11:13:07;;;;;;;10.25;2.13;;;12.20;67.10;;;;;;5065360;28;20032;-80
2021/04/01 11:15:36;;;;;;;5.13;1.23;;;12.40;65.70;;;;;;5100251;28;20052;-79
2021/04/01 11:18:18;;;;;;;8.65;1.55;;;12.30;66.50;;;;;;5094741;28;20130;-79
2021/04/01 11:20:51;;;;;;;7.97;1.77;;;12.40;65.80;;;;;;5094906;28;20051;-81
2021/04/01 11:23:24;;;;;;;7.80;1.13;;;12.40;64.80;;;;;;5057697;28;20411;-79
2021/04/01 11:25:53;;;;;;;10.35;1.55;;;12.30;63.50;;;;;;5095213;28;20095;-80
2021/04/01 11:28:35;;;;;;;10.80;1.50;;;12.20;64.40;;;;;;5091608;28;20044;-78
2021/04/01 11:31:09;;;;;;;7.78;1.75;;;12.10;64.30;;;;;;5099090;28;20048;-78
2021/04/01 11:33:39;;;;;;;8.30;1.40;;;12.10;65.60;;;;;;5091699;28;20032;-78
2021/04/01 11:36:18;;;;;;;7.78;1.50;;;12.00;65.00;;;;;;5099747;27;20039;-79
2021/04/01 11:38:50;;;;;;;7.75;2.13;;;12.00;64.40;;;;;;5077183;28;20850;-78
2021/04/01 11:41:19;;;;;;;10.27;2.35;;;12.00;63.70;;;;;;5103186;28;20055;-82
2021/04/01 11:43:50;;;;;;;11.00;2.78;;;12.00;63.40;;;;;;5090404;28;20535;-79
2021/04/01 11:46:26;;;;;;;9.93;1.98;;;12.00;62.80;;;;;;5107965;28;20030;-79
2021/04/01 11:48:54;;;;;;;11.57;2.42;;;11.90;63.50;;;;;;5092008;28;20055;-79
2021/04/01 11:51:24;;;;;;;15.20;2.20;;;11.90;64.10;;;;;;5099207;28;20105;-78
2021/04/01 11:53:50;;;;;;;9.02;1.50;;;11.90;63.40;;;;;;5097698;28;20036;-78
2021/04/01 11:56:17;;;;;;;12.43;1.70;;;11.90;62.60;;;;;;5090856;28;20044;-78
2021/04/01 11:58:43;;;;;;;10.48;2.10;;;11.80;63.50;;;;;;5095489;28;20052;-78
2021/04/01 12:01:26;;;;;;;15.82;2.47;;;11.80;64.80;;;;;;5090533;28;20039;-78
2021/04/01 12:06:26;;;;;;;12.95;2.20;;;11.70;66.30;;;;;;5094437;28;20035;-78
2021/04/01 12:08:53;;;;;;;17.95;3.08;;;11.70;66.60;;;;;;5096146;28;20071;-78
2021/04/01 12:11:19;;;;;;;13.38;2.60;;;11.60;66.90;;;;;;5096311;28;20107;-79
2021/04/01 12:13:45;;;;;;;9.48;1.70;;;11.60;66.60;;;;;;5094308;28;20036;-79
2021/04/01 12:16:19;;;;;;;15.20;2.90;;;11.60;66.10;;;;;;5093201;28;20028;-78
2021/04/01 12:18:46;;;;;;;14.20;2.28;;;11.50;65.30;;;;;;5095307;28;20052;-79
2021/04/01 12:21:13;;;;;;;18.50;2.25;;;11.40;65.90;;;;;;5097708;28;20126;-79
2021/04/01 12:27:09;;;;;;;15.13;2.10;;;11.40;66.80;;;;;;5096934;28;20055;-79
2021/04/01 12:29:47;;;;;;;11.70;2.10;;;11.40;64.90;;;;;;5095013;28;20071;-79
2021/04/01 12:35:18;;;;;;;12.32;2.38;;;11.30;64.30;;;;;;5100084;28;20136;-79
2021/04/01 12:38:24;;;;;;;12.50;2.22;;;11.30;64.30;;;;;;5098455;28;20163;-81
2021/04/01 12:41:35;;;;;;;9.77;2.33;;;11.30;62.40;;;;;;5089797;28;20357;-79
2021/04/01 12:44:38;;;;;;;11.00;1.80;;;11.20;63.30;;;;;;5096651;28;20434;-79
2021/04/01 12:47:20;;;;;;;13.25;2.10;;;11.10;64.00;;;;;;5086592;28;20047;-78
2021/04/01 12:49:51;;;;;;;8.93;1.77;;;11.10;63.50;;;;;;5103366;28;20051;-79
2021/04/01 12:52:26;;;;;;;11.15;2.10;;;11.00;63.20;;;;;;5107489;28;20039;-79
2021/04/01 12:55:01;;;;;;;14.38;2.15;;;11.00;64.20;;;;;;5101157;28;20078;-80
2021/04/01 12:57:31;;;;;;;12.82;1.92;;;11.00;64.90;;;;;;5079274;28;20040;-79
2021/04/01 12:59:57;;;;;;;13.05;2.15;;;11.00;64.40;;;;;;5104779;28;20075;-79
2021/04/01 13:02:24;;;;;;;8.07;2.30;;;11.10;63.80;;;;;;5085768;28;20058;-79
2021/04/01 13:04:56;;;;;;;12.27;2.40;;;11.10;63.90;;;;;;5106705;28;20047;-80
2021/04/01 13:07:34;;;;;;;11.75;2.10;;;11.10;63.80;;;;;;5074572;28;20035;-80
2021/04/01 13:13:04;;;;;;;9.73;2.08;;;11.10;63.50;;;;;;5107194;28;20124;-79
2021/04/01 13:15:30;;;;;;;10.45;2.13;;;11.10;62.60;;;;;;5099971;28;20044;-79
2021/04/01 13:17:58;;;;;;;9.60;2.17;;;11.10;61.50;;;;;;5099875;28;20178;-80
2021/04/01 13:20:34;;;;;;;14.05;2.28;;;11.10;62.30;;;;;;5102749;28;20056;-80
2021/04/01 13:25:33;;;;;;;14.85;2.22;;;11.00;63.00;;;;;;5098397;28;20035;-79
2021/04/01 13:28:08;;;;;;;9.82;2.38;;;10.90;63.50;;;;;;5096647;27;20160;-78
2021/04/01 13:30:36;;;;;;;9.13;2.15;;;10.80;62.40;;;;;;5100793;28;20464;-79
2021/04/01 13:33:11;;;;;;;7.43;1.83;;;10.90;62.40;;;;;;5096623;28;20113;-79
2021/04/01 13:40:41;;;;;;;15.02;3.05;;;10.70;62.40;;;;;;5102227;28;20104;-79
2021/04/01 13:43:08;;;;;;;9.70;2.30;;;10.60;63.30;;;;;;5106133;27;20048;-79
2021/04/01 13:45:34;;;;;;;8.02;2.10;;;10.60;64.30;;;;;;5088461;28;20114;-79
2021/04/01 13:48:20;;;;;;;11.30;2.30;;;10.60;64.70;;;;;;5101328;28;20567;-79
2021/04/01 13:51:30;;;;;;;8.60;1.98;;;10.70;64.70;;;;;;5097519;28;20043;-79
2021/04/01 13:54:09;;;;;;;9.77;2.40;;;10.60;65.80;;;;;;5095011;28;20059;-79
2021/04/01 13:56:58;;;;;;;8.15;1.98;;;10.60;66.90;;;;;;5098829;28;20035;-79
2021/04/01 13:59:30;;;;;;;8.43;2.00;;;10.60;67.70;;;;;;5098251;28;20492;-79
2021/04/01 14:10:23;;;;;;;6.15;1.48;;;10.40;69.90;;;;;;5090222;28;20460;-77
2021/04/01 14:12:53;;;;;;;10.43;1.73;;;10.40;70.60;;;;;;5097640;28;20111;-77
2021/04/01 14:15:19;;;;;;;5.43;1.58;;;10.30;71.00;;;;;;5101407;27;20420;-77
2021/04/01 14:17:45;;;;;;;3.92;1.60;;;10.40;71.40;;;;;;5098577;28;20042;-77
2021/04/01 14:20:15;;;;;;;5.80;1.38;;;10.40;71.60;;;;;;5073614;28;20048;-77
2021/04/01 14:22:42;;;;;;;5.45;1.20;;;10.30;71.60;;;;;;5093487;28;20090;-76
2021/04/01 14:25:22;;;;;;;7.45;1.48;;;10.20;71.70;;;;;;5094394;28;20040;-77
2021/04/01 14:28:01;;;;;;;6.70;1.65;;;10.20;72.00;;;;;;5096029;28;20491;-77
2021/04/01 14:30:29;;;;;;;4.00;1.00;;;10.30;72.80;;;;;;5091992;28;20066;-79
2021/04/01 14:33:00;;;;;;;5.95;1.25;;;10.30;73.30;;;;;;5095391;28;20046;-78
2021/04/01 14:35:30;;;;;;;5.40;1.02;;;10.20;73.00;;;;;;5094146;28;20108;-79
2021/04/01 14:38:04;;;;;;;4.57;0.93;;;10.10;73.20;;;;;;5100052;28;20047;-78
2021/04/01 14:40:40;;;;;;;5.40;1.17;;;10.20;72.80;;;;;;5096363;28;20075;-77
2021/04/01 14:43:34;;;;;;;3.95;1.15;;;10.10;72.80;;;;;;5096040;27;20070;-78
2021/04/01 14:45:57;;;;;;;3.47;0.88;;;10.10;72.80;;;;;;5087212;28;20045;-78